createdAt,value
2023-03-08T00:02:02.948Z,5.17
2023-03-08T00:04:34.288Z,4.40
2023-03-08T00:07:04.772Z,4.40
2023-03-08T00:09:35.341Z,4.57
2023-03-08T00:12:07.450Z,4.40
2023-03-08T00:14:43.108Z,4.40
2023-03-08T00:17:13.542Z,4.40
2023-03-08T00:19:44.426Z,3.90
2023-03-08T00:22:16.126Z,4.85
2023-03-08T00:24:46.635Z,5.10
2023-03-08T00:27:17.256Z,4.60
2023-03-08T00:29:50.572Z,4.28
2023-03-08T00:32:21.232Z,4.50
2023-03-08T00:34:54.684Z,4.93
2023-03-08T00:37:28.313Z,4.73
2023-03-08T00:40:00.383Z,4.40
2023-03-08T00:42:32.319Z,4.20
2023-03-08T00:45:05.520Z,4.10
2023-03-08T00:47:35.970Z,4.00
2023-03-08T00:50:06.670Z,4.00
2023-03-08T00:52:39.673Z,4.05
2023-03-08T00:55:11.110Z,4.80
2023-03-08T00:57:41.832Z,3.97
2023-03-08T01:00:17.747Z,4.45
2023-03-08T01:02:48.386Z,4.23
2023-03-08T01:05:19.108Z,4.18
2023-03-08T01:07:49.481Z,4.50
2023-03-08T01:10:20.941Z,4.20
2023-03-08T01:12:52.713Z,4.53
2023-03-08T01:15:27.612Z,4.37
2023-03-08T01:17:58.214Z,4.67
2023-03-08T01:20:28.791Z,4.72
2023-03-08T01:22:59.568Z,4.30
2023-03-08T01:25:30.446Z,4.50
2023-03-08T01:28:01.049Z,5.85
2023-03-08T01:30:34.348Z,4.85
2023-03-08T01:33:04.761Z,5.70
2023-03-08T01:35:35.213Z,5.60
2023-03-08T01:38:05.813Z,5.40
2023-03-08T01:40:36.785Z,6.28
2023-03-08T01:43:25.533Z,5.60
2023-03-08T01:46:27.907Z,5.90
2023-03-08T01:49:11.530Z,5.30
2023-03-08T01:51:47.837Z,5.67
2023-03-08T01:54:22.483Z,5.70
2023-03-08T01:56:56.523Z,6.20
2023-03-08T01:59:30.044Z,5.53
2023-03-08T02:02:04.929Z,5.67
2023-03-08T02:04:37.347Z,7.10
2023-03-08T02:07:11.253Z,6.47
2023-03-08T02:09:42.568Z,5.50
2023-03-08T02:12:16.459Z,6.03
2023-03-08T02:14:48.043Z,5.50
2023-03-08T02:17:21.975Z,5.27
2023-03-08T02:20:00.917Z,5.30
2023-03-08T02:22:31.902Z,6.13
2023-03-08T02:25:05.026Z,5.50
2023-03-08T02:27:35.610Z,4.97
2023-03-08T02:30:09.655Z,5.78
2023-03-08T02:32:46.046Z,5.30
2023-03-08T02:35:16.423Z,5.67
2023-03-08T02:37:46.826Z,5.37
2023-03-08T02:40:20.455Z,5.53
2023-03-08T02:42:53.273Z,5.77
2023-03-08T02:45:23.817Z,5.40
2023-03-08T02:47:54.439Z,6.10
2023-03-08T02:50:28.420Z,6.78
2023-03-08T02:52:59.006Z,6.50
2023-03-08T02:55:32.265Z,5.97
2023-03-08T02:58:02.848Z,6.13
2023-03-08T03:00:33.274Z,8.47
2023-03-08T03:03:04.687Z,7.33
2023-03-08T03:05:35.206Z,9.47
2023-03-08T03:08:09.575Z,7.63
2023-03-08T03:10:44.598Z,7.93
2023-03-08T03:13:16.729Z,8.53
2023-03-08T03:15:47.082Z,8.67
2023-03-08T03:18:19.125Z,8.33
2023-03-08T03:20:49.477Z,9.47
2023-03-08T03:23:19.929Z,8.23
2023-03-08T03:25:58.838Z,9.00
2023-03-08T03:28:29.321Z,9.70
2023-03-08T03:30:59.738Z,11.40
2023-03-08T03:33:30.726Z,10.00
2023-03-08T03:36:03.477Z,10.93
2023-03-08T03:38:37.408Z,9.17
2023-03-08T03:43:45.056Z,9.33
2023-03-08T03:46:21.484Z,9.65
2023-03-08T03:49:01.320Z,11.43
2023-03-08T03:51:37.765Z,9.10
2023-03-08T03:54:17.723Z,9.67
2023-03-08T03:56:52.473Z,10.80
2023-03-08T03:59:28.532Z,9.23
2023-03-08T04:02:01.953Z,8.47
2023-03-08T04:04:44.514Z,8.83
2023-03-08T04:07:17.371Z,9.23
2023-03-08T04:09:55.046Z,7.33
2023-03-08T04:12:28.169Z,8.98
2023-03-08T04:14:59.155Z,6.90
2023-03-08T04:17:33.492Z,7.87
2023-03-08T04:22:43.481Z,7.60
2023-03-08T04:25:24.765Z,7.60
2023-03-08T04:28:03.641Z,6.90
2023-03-08T04:30:35.381Z,7.70
2023-03-08T04:33:07.266Z,6.97
2023-03-08T04:35:48.495Z,7.28
2023-03-08T04:38:21.713Z,6.87
2023-03-08T04:41:19.906Z,9.10
2023-03-08T04:44:15.438Z,6.13
2023-03-08T04:46:50.885Z,6.23
2023-03-08T04:49:29.036Z,6.90
2023-03-08T04:52:03.938Z,6.87
2023-03-08T04:54:37.069Z,7.00
2023-03-08T04:57:32.363Z,8.43
2023-03-08T05:00:09.494Z,7.37
2023-03-08T05:02:42.355Z,7.13
2023-03-08T05:05:17.631Z,8.57
2023-03-08T05:07:48.881Z,9.13
2023-03-08T05:10:19.658Z,10.50
2023-03-08T05:12:50.135Z,7.90
2023-03-08T05:15:23.612Z,8.13
2023-03-08T05:17:54.603Z,8.37
2023-03-08T05:20:27.429Z,8.05
2023-03-08T05:22:59.530Z,8.13
2023-03-08T05:25:45.952Z,8.97
2023-03-08T05:28:17.104Z,9.87
2023-03-08T05:31:03.781Z,7.83
2023-03-08T05:33:36.185Z,7.93
2023-03-08T05:36:08.758Z,10.63
2023-03-08T05:38:39.973Z,9.27
2023-03-08T05:41:16.908Z,8.57
2023-03-08T05:43:51.117Z,9.30
2023-03-08T05:46:24.648Z,8.57
2023-03-08T05:48:56.212Z,8.50
2023-03-08T05:53:57.651Z,7.63
2023-03-08T05:56:28.555Z,8.03
2023-03-08T05:59:12.930Z,8.73
2023-03-08T06:01:45.896Z,8.47
2023-03-08T06:04:26.868Z,10.03
2023-03-08T06:06:57.825Z,8.00
2023-03-08T06:09:33.110Z,11.93
2023-03-08T06:12:03.836Z,7.65
2023-03-08T06:14:34.386Z,9.02
2023-03-08T06:17:08.156Z,10.18
2023-03-08T06:19:43.856Z,9.13
2023-03-08T06:22:19.903Z,9.30
2023-03-08T06:24:51.010Z,9.47
2023-03-08T06:27:28.512Z,9.53
2023-03-08T06:30:02.490Z,11.77
2023-03-08T06:32:38.682Z,12.20
2023-03-08T06:35:12.393Z,8.83
2023-03-08T06:37:49.694Z,8.73
2023-03-08T06:40:20.948Z,9.83
2023-03-08T06:45:21.557Z,8.67
2023-03-08T06:47:54.510Z,9.07
2023-03-08T06:50:24.828Z,10.47
2023-03-08T06:52:55.561Z,9.77
2023-03-08T06:55:38.517Z,9.23
2023-03-08T06:58:09.852Z,11.65
2023-03-08T07:03:14.971Z,12.05
2023-03-08T07:05:45.436Z,11.55
2023-03-08T07:08:15.739Z,13.93
2023-03-08T07:10:46.111Z,13.70
2023-03-08T07:13:17.588Z,10.15
2023-03-08T07:15:47.934Z,13.27
2023-03-08T07:18:21.140Z,12.40
2023-03-08T07:20:56.022Z,15.65
2023-03-08T07:23:26.468Z,12.27
2023-03-08T07:25:56.956Z,12.17
2023-03-08T07:28:27.576Z,14.73
2023-03-08T07:30:57.938Z,11.70
2023-03-08T07:33:31.016Z,17.80
2023-03-08T07:36:04.460Z,48.42
2023-03-08T07:38:34.758Z,11.68
2023-03-08T07:41:05.089Z,11.57
2023-03-08T07:43:35.497Z,12.30
2023-03-08T07:46:21.253Z,11.00
2023-03-08T07:48:55.672Z,13.43
2023-03-08T07:51:26.067Z,9.95
2023-03-08T07:53:56.630Z,10.00
2023-03-08T07:56:26.958Z,10.10
2023-03-08T07:58:59.456Z,7.43
2023-03-08T08:01:30.042Z,7.88
2023-03-08T08:04:03.834Z,8.98
2023-03-08T08:06:34.226Z,7.63
2023-03-08T08:09:04.777Z,8.57
2023-03-08T08:11:35.431Z,8.13
2023-03-08T08:14:05.843Z,41.05
2023-03-08T08:16:36.678Z,11.43
2023-03-08T08:19:09.925Z,8.65
2023-03-08T08:21:40.222Z,7.07
2023-03-08T08:24:11.865Z,8.60
2023-03-08T08:26:42.991Z,6.78
2023-03-08T08:29:13.705Z,6.47
2023-03-08T08:31:44.402Z,5.75
2023-03-08T08:34:17.705Z,4.97
2023-03-08T08:36:47.951Z,5.22
2023-03-08T08:39:18.292Z,6.23
2023-03-08T08:41:48.618Z,6.50
2023-03-08T08:44:18.973Z,6.43
2023-03-08T08:46:49.356Z,7.43
2023-03-08T08:49:22.257Z,9.03
2023-03-08T08:51:53.462Z,5.28
2023-03-08T08:54:23.852Z,5.07
2023-03-08T08:56:54.278Z,4.80
2023-03-08T08:59:24.537Z,4.60
2023-03-08T09:01:54.898Z,4.43
2023-03-08T09:04:28.012Z,4.20
2023-03-08T09:06:58.439Z,5.78
2023-03-08T09:09:28.881Z,5.03
2023-03-08T09:11:59.252Z,3.58
2023-03-08T09:14:29.739Z,4.97
2023-03-08T09:17:00.157Z,5.43
2023-03-08T09:19:33.174Z,4.47
2023-03-08T09:22:03.638Z,4.85
2023-03-08T09:24:34.310Z,4.60
2023-03-08T09:27:04.908Z,5.22
2023-03-08T09:29:36.655Z,5.53
2023-03-08T09:32:08.065Z,6.63
2023-03-08T09:34:41.168Z,5.25
2023-03-08T09:37:13.484Z,6.68
2023-03-08T09:39:43.915Z,8.45
2023-03-08T09:42:24.119Z,7.65
2023-03-08T09:45:10.802Z,7.75
2023-03-08T09:47:49.327Z,8.68
2023-03-08T09:50:39.943Z,7.88
2023-03-08T09:53:24.505Z,8.18
2023-03-08T09:55:59.881Z,9.65
2023-03-08T09:58:42.887Z,8.90
2023-03-08T10:01:31.486Z,8.23
2023-03-08T10:04:17.962Z,9.90
2023-03-08T10:07:26.038Z,10.68
2023-03-08T10:10:21.592Z,14.35
2023-03-08T10:13:09.211Z,13.07
2023-03-08T10:15:46.314Z,12.43
2023-03-08T10:18:24.547Z,14.35
2023-03-08T10:20:55.442Z,24.15
2023-03-08T10:23:33.769Z,23.10
2023-03-08T10:26:08.155Z,13.70
2023-03-08T10:28:38.444Z,15.32
2023-03-08T10:31:29.069Z,13.03
2023-03-08T10:34:13.852Z,16.57
2023-03-08T10:36:55.233Z,17.17
2023-03-08T10:39:28.390Z,16.95
2023-03-08T10:42:01.112Z,28.35
2023-03-08T10:44:40.297Z,21.25
2023-03-08T10:47:25.825Z,18.60
2023-03-08T10:50:18.010Z,19.50
2023-03-08T10:52:50.930Z,16.65
2023-03-08T10:55:26.305Z,18.33
2023-03-08T10:58:00.924Z,17.02
2023-03-08T11:00:37.584Z,16.08
2023-03-08T11:03:19.033Z,18.27
2023-03-08T11:05:59.202Z,23.92
2023-03-08T11:08:33.744Z,20.38
2023-03-08T11:11:11.708Z,32.47
2023-03-08T11:13:46.623Z,18.92
2023-03-08T11:16:52.659Z,15.85
2023-03-08T11:19:36.128Z,16.42
2023-03-08T11:22:24.553Z,17.35
2023-03-08T11:25:21.732Z,17.42
2023-03-08T11:28:23.188Z,38.25
2023-03-08T11:31:07.718Z,37.65
2023-03-08T11:34:09.524Z,18.33
2023-03-08T11:36:44.598Z,17.77
2023-03-08T11:39:29.921Z,15.02
2023-03-08T11:42:12.552Z,23.38
2023-03-08T11:45:00.965Z,17.45
2023-03-08T11:48:04.637Z,14.48
2023-03-08T11:50:39.253Z,18.42
2023-03-08T11:53:21.488Z,20.38
2023-03-08T11:56:11.130Z,15.55
2023-03-08T11:58:49.168Z,16.08
2023-03-08T12:01:28.664Z,13.98
2023-03-08T12:04:04.942Z,38.63
2023-03-08T12:06:42.140Z,13.57
2023-03-08T12:09:23.193Z,13.80
2023-03-08T12:12:01.830Z,16.70
2023-03-08T12:14:36.796Z,12.07
2023-03-08T12:17:18.866Z,15.07
2023-03-08T12:19:51.514Z,13.95
2023-03-08T12:22:45.658Z,13.15
2023-03-08T12:25:26.550Z,13.73
2023-03-08T12:28:04.958Z,14.35
2023-03-08T12:30:54.842Z,14.63
2023-03-08T12:33:32.497Z,12.82
2023-03-08T12:36:05.375Z,14.35
2023-03-08T12:38:39.632Z,14.15
2023-03-08T12:41:26.802Z,14.20
2023-03-08T12:44:07.449Z,16.30
2023-03-08T12:47:02.955Z,12.67
2023-03-08T12:49:40.641Z,13.35
2023-03-08T12:52:30.471Z,13.05
2023-03-08T12:55:06.096Z,13.05
2023-03-08T12:57:43.103Z,13.60
2023-03-08T13:00:30.961Z,14.13
2023-03-08T13:03:08.872Z,12.63
2023-03-08T13:05:45.693Z,12.85
2023-03-08T13:08:35.133Z,14.82
2023-03-08T13:11:11.376Z,13.63
2023-03-08T13:13:53.624Z,14.48
2023-03-08T13:16:38.226Z,12.90
2023-03-08T13:19:25.704Z,14.80
2023-03-08T13:22:09.110Z,14.40
2023-03-08T13:24:46.201Z,14.65
2023-03-08T13:27:30.232Z,14.75
2023-03-08T13:30:10.709Z,14.38
2023-03-08T13:32:43.001Z,13.20
2023-03-08T13:35:19.284Z,14.13
2023-03-08T13:38:01.534Z,16.77
2023-03-08T13:40:33.621Z,15.75
2023-03-08T13:43:09.379Z,15.52
2023-03-08T13:45:41.727Z,17.52
2023-03-08T13:48:12.466Z,12.68
2023-03-08T13:50:47.541Z,13.35
2023-03-08T13:53:23.295Z,13.95
2023-03-08T13:55:57.090Z,11.93
2023-03-08T13:58:37.278Z,13.60
2023-03-08T14:01:15.799Z,13.60
2023-03-08T14:03:47.520Z,12.75
2023-03-08T14:06:25.171Z,12.25
2023-03-08T14:09:02.244Z,11.48
2023-03-08T14:11:36.720Z,15.52
2023-03-08T14:14:10.685Z,12.02
2023-03-08T14:16:43.923Z,11.27
2023-03-08T14:19:22.425Z,13.10
2023-03-08T14:21:55.534Z,11.40
2023-03-08T14:24:31.626Z,10.43
2023-03-08T14:27:04.432Z,13.73
2023-03-08T14:29:36.429Z,11.90
2023-03-08T14:32:25.978Z,11.25
2023-03-08T14:35:10.050Z,10.15
2023-03-08T14:37:40.434Z,11.68
2023-03-08T14:40:30.638Z,11.50
2023-03-08T14:43:04.835Z,12.27
2023-03-08T14:45:41.880Z,10.15
2023-03-08T14:48:27.735Z,11.70
2023-03-08T14:51:01.772Z,12.18
2023-03-08T14:53:35.662Z,10.75
2023-03-08T14:56:13.068Z,11.30
2023-03-08T14:58:49.294Z,12.93
2023-03-08T15:01:27.695Z,11.88
2023-03-08T15:03:58.288Z,11.90
2023-03-08T15:06:31.794Z,11.02
2023-03-08T15:09:03.936Z,14.02
2023-03-08T15:11:37.320Z,11.02
2023-03-08T15:14:08.413Z,12.00
2023-03-08T15:19:10.801Z,12.57
2023-03-08T15:21:41.553Z,11.65
2023-03-08T15:24:18.456Z,12.82
2023-03-08T15:26:52.845Z,12.68
2023-03-08T15:29:30.234Z,12.23
2023-03-08T15:32:01.293Z,10.43
2023-03-08T15:34:31.878Z,10.40
2023-03-08T15:37:02.340Z,9.90
2023-03-08T15:39:33.039Z,12.27
2023-03-08T15:42:06.105Z,10.95
2023-03-08T15:44:36.443Z,11.45
2023-03-08T15:47:07.048Z,12.03
2023-03-08T15:49:37.492Z,11.93
2023-03-08T15:52:08.948Z,11.00
2023-03-08T15:54:40.543Z,11.63
2023-03-08T15:57:13.583Z,12.63
2023-03-08T15:59:44.583Z,12.43
2023-03-08T16:02:18.070Z,11.65
2023-03-08T16:04:49.992Z,12.77
2023-03-08T16:07:21.997Z,13.40
2023-03-08T16:09:52.405Z,11.77
2023-03-08T16:12:25.359Z,12.77
2023-03-08T16:14:57.403Z,12.25
2023-03-08T16:17:28.925Z,12.50
2023-03-08T16:19:59.330Z,11.50
2023-03-08T16:22:29.758Z,14.47
2023-03-08T16:25:00.198Z,13.25
2023-03-08T16:27:36.215Z,12.70
2023-03-08T16:30:09.370Z,14.93
2023-03-08T16:32:39.701Z,13.60
2023-03-08T16:35:11.391Z,13.35
2023-03-08T16:37:41.859Z,15.25
2023-03-08T16:40:15.680Z,12.25
2023-03-08T16:42:48.688Z,12.80
2023-03-08T16:45:19.326Z,13.15
2023-03-08T16:47:49.713Z,13.98
2023-03-08T16:50:20.733Z,14.67
2023-03-08T16:52:51.210Z,13.32
2023-03-08T16:55:21.826Z,14.20
2023-03-08T16:57:54.941Z,14.10
2023-03-08T17:00:27.306Z,15.20
2023-03-08T17:02:57.779Z,15.38
2023-03-08T17:05:28.410Z,17.90
2023-03-08T17:07:58.877Z,18.42
2023-03-08T17:10:29.336Z,15.52
2023-03-08T17:13:02.337Z,15.27
2023-03-08T17:15:32.832Z,13.95
2023-03-08T17:18:03.251Z,15.75
2023-03-08T17:20:33.902Z,17.27
2023-03-08T17:23:04.372Z,15.45
2023-03-08T17:25:39.988Z,11.65
2023-03-08T17:28:16.054Z,17.52
2023-03-08T17:30:46.542Z,16.88
2023-03-08T17:33:17.778Z,17.88
2023-03-08T17:38:18.478Z,15.55
2023-03-08T17:40:48.997Z,17.23
2023-03-08T17:43:22.234Z,14.63
2023-03-08T17:46:00.831Z,15.68
2023-03-08T17:48:31.934Z,14.13
2023-03-08T17:51:05.417Z,16.30
2023-03-08T17:53:37.654Z,15.70
2023-03-08T17:56:10.039Z,14.70
2023-03-08T17:58:43.695Z,42.70
2023-03-08T18:01:16.806Z,17.75
2023-03-08T18:03:48.316Z,16.85
2023-03-08T18:06:25.423Z,19.73
2023-03-08T18:08:56.606Z,19.42
2023-03-08T18:11:27.647Z,20.95
2023-03-08T18:14:00.749Z,22.63
2023-03-08T18:16:32.559Z,25.05
2023-03-08T18:19:03.451Z,28.40
2023-03-08T18:21:36.372Z,24.55
2023-03-08T18:24:07.949Z,23.17
2023-03-08T18:26:38.501Z,24.38
2023-03-08T18:29:12.844Z,24.07
2023-03-08T18:31:43.700Z,23.27
2023-03-08T18:34:14.514Z,26.17
2023-03-08T18:36:45.313Z,24.83
2023-03-08T18:39:16.652Z,29.42
2023-03-08T18:41:47.073Z,40.45
2023-03-08T18:44:20.285Z,22.30
2023-03-08T18:46:50.739Z,21.67
2023-03-08T18:49:21.790Z,17.00
2023-03-08T18:51:52.224Z,16.67
2023-03-08T18:54:23.497Z,18.88
2023-03-08T18:56:54.632Z,16.42
2023-03-08T18:59:28.154Z,23.35
2023-03-08T19:01:58.708Z,20.35
2023-03-08T19:04:29.548Z,19.55
2023-03-08T19:06:59.931Z,13.48
2023-03-08T19:09:30.222Z,13.03
2023-03-08T19:12:02.446Z,13.27
2023-03-08T19:14:37.011Z,11.73
2023-03-08T19:17:07.920Z,10.43
2023-03-08T19:19:38.461Z,13.98
2023-03-08T19:22:08.990Z,11.82
2023-03-08T19:24:39.401Z,10.35
2023-03-08T19:27:10.448Z,9.30
2023-03-08T19:29:44.181Z,8.35
2023-03-08T19:32:16.796Z,11.50
2023-03-08T19:34:49.262Z,10.77
2023-03-08T19:37:19.869Z,9.23
2023-03-08T19:39:51.633Z,9.10
2023-03-08T19:42:24.742Z,9.40
2023-03-08T19:44:57.756Z,10.25
2023-03-08T19:47:28.426Z,11.57
2023-03-08T19:49:58.900Z,10.57
2023-03-08T19:52:29.259Z,8.73
2023-03-08T19:54:59.734Z,11.07
2023-03-08T19:57:30.463Z,8.57
2023-03-08T20:00:04.266Z,7.63
2023-03-08T20:02:45.846Z,10.07
2023-03-08T20:05:18.704Z,8.82
2023-03-08T20:07:49.260Z,8.88
2023-03-08T20:10:20.717Z,11.52
2023-03-08T20:12:52.730Z,10.35
2023-03-08T20:15:28.110Z,8.93
2023-03-08T20:17:58.587Z,9.30
2023-03-08T20:20:30.961Z,10.05
2023-03-08T20:23:01.386Z,8.75
2023-03-08T20:25:32.083Z,9.38
2023-03-08T20:28:02.783Z,11.20
2023-03-08T20:30:37.055Z,10.52
2023-03-08T20:33:07.793Z,8.80
2023-03-08T20:35:38.282Z,10.75
2023-03-08T20:38:08.876Z,6.75
2023-03-08T20:40:39.862Z,11.73
2023-03-08T20:43:11.164Z,10.13
2023-03-08T20:45:44.491Z,10.45
2023-03-08T20:48:14.918Z,11.30
2023-03-08T20:50:45.415Z,10.47
2023-03-08T20:53:15.926Z,10.02
2023-03-08T20:55:46.367Z,9.90
2023-03-08T20:58:16.694Z,13.53
2023-03-08T21:00:49.862Z,12.20
2023-03-08T21:03:20.683Z,11.02
2023-03-08T21:05:51.077Z,11.50
2023-03-08T21:08:24.445Z,13.03
2023-03-08T21:10:54.726Z,13.23
2023-03-08T21:13:25.029Z,12.10
2023-03-08T21:16:04.173Z,13.27
2023-03-08T21:18:34.735Z,12.75
2023-03-08T21:21:05.294Z,12.88
2023-03-08T21:23:36.123Z,13.82
2023-03-08T21:26:06.523Z,13.25
2023-03-08T21:28:36.929Z,15.83
2023-03-08T21:31:17.622Z,14.52
2023-03-08T21:33:48.220Z,11.80
2023-03-08T21:36:19.194Z,12.40
2023-03-08T21:38:54.973Z,13.65
2023-03-08T21:41:28.656Z,12.80
2023-03-08T21:44:00.565Z,12.00
2023-03-08T21:46:33.715Z,12.07
2023-03-08T21:49:04.257Z,13.15
2023-03-08T21:51:37.105Z,15.13
2023-03-08T21:54:07.897Z,12.55
2023-03-08T21:56:38.458Z,14.95
2023-03-08T21:59:09.310Z,13.90
2023-03-08T22:01:45.740Z,14.23
2023-03-08T22:04:16.464Z,12.13
2023-03-08T22:06:47.204Z,13.52
2023-03-08T22:09:17.687Z,14.82
2023-03-08T22:11:48.162Z,15.25
2023-03-08T22:14:18.689Z,14.05
2023-03-08T22:16:53.269Z,15.02
2023-03-08T22:19:23.579Z,13.93
2023-03-08T22:21:54.022Z,13.17
2023-03-08T22:24:24.487Z,13.98
2023-03-08T22:26:54.807Z,14.43
2023-03-08T22:29:25.147Z,14.00
2023-03-08T22:31:58.094Z,14.03
2023-03-08T22:34:28.611Z,14.70
2023-03-08T22:37:00.578Z,15.35
2023-03-08T22:39:31.056Z,14.90
2023-03-08T22:42:01.470Z,14.20
2023-03-08T22:44:31.866Z,16.10
2023-03-08T22:47:04.852Z,13.40
2023-03-08T22:49:35.233Z,15.38
2023-03-08T22:52:09.697Z,12.60
2023-03-08T22:54:39.977Z,12.98
2023-03-08T22:57:10.440Z,13.50
2023-03-08T22:59:40.917Z,12.93
2023-03-08T23:02:14.556Z,15.13
2023-03-08T23:04:44.968Z,16.20
2023-03-08T23:07:15.350Z,16.27
2023-03-08T23:09:45.713Z,13.67
2023-03-08T23:12:16.371Z,13.33
2023-03-08T23:14:46.850Z,13.20
2023-03-08T23:17:20.028Z,13.25
2023-03-08T23:19:55.690Z,13.52
2023-03-08T23:22:27.447Z,15.35
2023-03-08T23:24:57.758Z,12.50
2023-03-08T23:27:28.132Z,14.60
2023-03-08T23:29:58.611Z,12.90
2023-03-08T23:32:31.952Z,14.27
2023-03-08T23:35:02.398Z,12.13
2023-03-08T23:37:32.830Z,13.15
2023-03-08T23:40:07.564Z,11.77
2023-03-08T23:42:37.977Z,14.93
2023-03-08T23:45:11.051Z,11.93
2023-03-08T23:47:44.107Z,12.07
2023-03-08T23:50:15.278Z,11.52
2023-03-08T23:52:45.782Z,13.93
2023-03-08T23:55:16.849Z,12.90
2023-03-08T23:57:47.399Z,14.10
